sensor_id;sensor_type;location;lat;lon;timestamp;P1;durP1;ratioP1;P2;durP2;ratioP2
36243;SDS011;22284;49.956;19.816;2022-07-22T00:00:40;12.63;;;7.00;;
36243;SDS011;22284;49.956;19.816;2022-07-22T00:03:41;10.05;;;5.75;;
36243;SDS011;22284;49.956;19.816;2022-07-22T00:06:43;15.88;;;6.75;;
36243;SDS011;22284;49.956;19.816;2022-07-22T00:09:44;15.45;;;7.30;;
36243;SDS011;22284;49.956;19.816;2022-07-22T00:12:45;12.93;;;6.50;;
36243;SDS011;22284;49.956;19.816;2022-07-22T00:15:46;16.05;;;6.87;;
36243;SDS011;22284;49.956;19.816;2022-07-22T00:18:47;13.30;;;6.53;;
36243;SDS011;22284;49.956;19.816;2022-07-22T00:21:48;14.18;;;6.95;;
36243;SDS011;22284;49.956;19.816;2022-07-22T00:24:49;16.25;;;6.97;;
36243;SDS011;22284;49.956;19.816;2022-07-22T00:27:50;14.95;;;6.65;;
36243;SDS011;22284;49.956;19.816;2022-07-22T00:30:51;10.05;;;5.47;;
36243;SDS011;22284;49.956;19.816;2022-07-22T00:33:52;13.45;;;6.15;;
36243;SDS011;22284;49.956;19.816;2022-07-22T00:36:53;13.48;;;6.50;;
36243;SDS011;22284;49.956;19.816;2022-07-22T00:39:54;14.10;;;7.22;;
36243;SDS011;22284;49.956;19.816;2022-07-22T00:42:55;12.18;;;6.60;;
36243;SDS011;22284;49.956;19.816;2022-07-22T00:45:56;12.43;;;6.12;;
36243;SDS011;22284;49.956;19.816;2022-07-22T00:48:57;13.60;;;6.42;;
36243;SDS011;22284;49.956;19.816;2022-07-22T00:51:59;13.32;;;6.90;;
36243;SDS011;22284;49.956;19.816;2022-07-22T00:55:01;10.63;;;6.00;;
36243;SDS011;22284;49.956;19.816;2022-07-22T00:58:04;10.08;;;5.70;;
36243;SDS011;22284;49.956;19.816;2022-07-22T01:01:05;12.60;;;6.03;;
36243;SDS011;22284;49.956;19.816;2022-07-22T01:04:06;12.70;;;6.55;;
36243;SDS011;22284;49.956;19.816;2022-07-22T01:07:08;12.82;;;6.80;;
36243;SDS011;22284;49.956;19.816;2022-07-22T01:10:09;19.52;;;6.78;;
36243;SDS011;22284;49.956;19.816;2022-07-22T01:13:11;12.65;;;6.50;;
36243;SDS011;22284;49.956;19.816;2022-07-22T01:16:12;11.57;;;6.40;;
36243;SDS011;22284;49.956;19.816;2022-07-22T01:19:16;13.00;;;6.03;;
36243;SDS011;22284;49.956;19.816;2022-07-22T01:22:17;10.13;;;6.42;;
36243;SDS011;22284;49.956;19.816;2022-07-22T01:25:18;11.68;;;6.87;;
36243;SDS011;22284;49.956;19.816;2022-07-22T01:28:19;11.18;;;6.20;;
36243;SDS011;22284;49.956;19.816;2022-07-22T01:31:20;11.80;;;6.28;;
36243;SDS011;22284;49.956;19.816;2022-07-22T01:34:22;10.98;;;6.10;;
36243;SDS011;22284;49.956;19.816;2022-07-22T01:37:23;9.35;;;5.60;;
36243;SDS011;22284;49.956;19.816;2022-07-22T01:40:24;12.63;;;6.03;;
36243;SDS011;22284;49.956;19.816;2022-07-22T01:43:26;13.48;;;7.10;;
36243;SDS011;22284;49.956;19.816;2022-07-22T01:46:27;12.98;;;6.62;;
36243;SDS011;22284;49.956;19.816;2022-07-22T01:49:28;12.43;;;7.20;;
36243;SDS011;22284;49.956;19.816;2022-07-22T01:52:29;12.47;;;7.50;;
36243;SDS011;22284;49.956;19.816;2022-07-22T01:55:30;14.10;;;7.78;;
36243;SDS011;22284;49.956;19.816;2022-07-22T01:58:31;14.80;;;7.83;;
36243;SDS011;22284;49.956;19.816;2022-07-22T02:01:32;11.97;;;6.83;;
36243;SDS011;22284;49.956;19.816;2022-07-22T02:04:33;12.13;;;6.67;;
36243;SDS011;22284;49.956;19.816;2022-07-22T02:07:35;13.25;;;7.22;;
36243;SDS011;22284;49.956;19.816;2022-07-22T02:10:36;13.00;;;6.72;;
36243;SDS011;22284;49.956;19.816;2022-07-22T02:13:37;14.85;;;7.45;;
36243;SDS011;22284;49.956;19.816;2022-07-22T02:16:39;14.30;;;7.30;;
36243;SDS011;22284;49.956;19.816;2022-07-22T02:19:40;15.48;;;7.20;;
36243;SDS011;22284;49.956;19.816;2022-07-22T02:22:41;16.52;;;7.25;;
36243;SDS011;22284;49.956;19.816;2022-07-22T02:25:42;12.35;;;7.03;;
36243;SDS011;22284;49.956;19.816;2022-07-22T02:28:43;14.87;;;6.53;;
36243;SDS011;22284;49.956;19.816;2022-07-22T02:31:44;12.18;;;6.80;;
36243;SDS011;22284;49.956;19.816;2022-07-22T02:34:45;11.73;;;6.65;;
36243;SDS011;22284;49.956;19.816;2022-07-22T02:37:46;13.70;;;6.78;;
36243;SDS011;22284;49.956;19.816;2022-07-22T02:40:47;12.18;;;7.03;;
36243;SDS011;22284;49.956;19.816;2022-07-22T02:43:48;11.20;;;6.80;;
36243;SDS011;22284;49.956;19.816;2022-07-22T02:46:50;14.25;;;6.95;;
36243;SDS011;22284;49.956;19.816;2022-07-22T02:49:51;11.65;;;6.85;;
36243;SDS011;22284;49.956;19.816;2022-07-22T02:52:52;11.93;;;6.78;;
36243;SDS011;22284;49.956;19.816;2022-07-22T02:55:53;14.50;;;6.83;;
36243;SDS011;22284;49.956;19.816;2022-07-22T02:58:54;15.98;;;7.60;;
36243;SDS011;22284;49.956;19.816;2022-07-22T03:01:56;10.95;;;6.60;;
36243;SDS011;22284;49.956;19.816;2022-07-22T03:04:57;13.25;;;7.30;;
36243;SDS011;22284;49.956;19.816;2022-07-22T03:07:58;11.25;;;6.67;;
36243;SDS011;22284;49.956;19.816;2022-07-22T03:10:59;11.33;;;7.00;;
36243;SDS011;22284;49.956;19.816;2022-07-22T03:14:00;13.38;;;6.58;;
36243;SDS011;22284;49.956;19.816;2022-07-22T03:17:01;12.80;;;6.80;;
36243;SDS011;22284;49.956;19.816;2022-07-22T03:20:03;11.45;;;7.25;;
36243;SDS011;22284;49.956;19.816;2022-07-22T03:23:06;14.00;;;6.67;;
36243;SDS011;22284;49.956;19.816;2022-07-22T03:26:07;11.85;;;6.65;;
36243;SDS011;22284;49.956;19.816;2022-07-22T03:29:08;15.48;;;6.75;;
36243;SDS011;22284;49.956;19.816;2022-07-22T03:32:09;16.50;;;7.67;;
36243;SDS011;22284;49.956;19.816;2022-07-22T03:35:11;13.45;;;7.42;;
36243;SDS011;22284;49.956;19.816;2022-07-22T03:38:13;12.80;;;7.45;;
36243;SDS011;22284;49.956;19.816;2022-07-22T03:41:14;16.90;;;8.05;;
36243;SDS011;22284;49.956;19.816;2022-07-22T03:44:15;15.88;;;7.33;;
36243;SDS011;22284;49.956;19.816;2022-07-22T03:47:19;12.60;;;6.80;;
36243;SDS011;22284;49.956;19.816;2022-07-22T03:50:23;15.35;;;7.30;;
36243;SDS011;22284;49.956;19.816;2022-07-22T03:53:25;15.65;;;7.90;;
36243;SDS011;22284;49.956;19.816;2022-07-22T03:56:26;17.20;;;8.83;;
36243;SDS011;22284;49.956;19.816;2022-07-22T03:59:27;16.90;;;8.13;;
36243;SDS011;22284;49.956;19.816;2022-07-22T04:02:28;15.50;;;8.10;;
36243;SDS011;22284;49.956;19.816;2022-07-22T04:05:29;16.52;;;8.53;;
36243;SDS011;22284;49.956;19.816;2022-07-22T04:08:30;17.07;;;8.13;;
36243;SDS011;22284;49.956;19.816;2022-07-22T04:11:31;14.10;;;8.20;;
36243;SDS011;22284;49.956;19.816;2022-07-22T04:14:32;13.70;;;7.95;;
36243;SDS011;22284;49.956;19.816;2022-07-22T04:17:33;13.53;;;7.80;;
36243;SDS011;22284;49.956;19.816;2022-07-22T04:20:34;15.93;;;8.17;;
36243;SDS011;22284;49.956;19.816;2022-07-22T04:23:35;13.50;;;7.90;;
36243;SDS011;22284;49.956;19.816;2022-07-22T04:26:37;13.80;;;8.08;;
36243;SDS011;22284;49.956;19.816;2022-07-22T04:29:38;16.25;;;7.78;;
36243;SDS011;22284;49.956;19.816;2022-07-22T04:32:39;11.78;;;7.30;;
36243;SDS011;22284;49.956;19.816;2022-07-22T04:35:40;12.60;;;7.80;;
36243;SDS011;22284;49.956;19.816;2022-07-22T04:38:41;12.25;;;7.20;;
36243;SDS011;22284;49.956;19.816;2022-07-22T04:41:42;14.87;;;6.87;;
36243;SDS011;22284;49.956;19.816;2022-07-22T04:44:43;14.80;;;7.55;;
36243;SDS011;22284;49.956;19.816;2022-07-22T04:47:45;11.60;;;6.90;;
36243;SDS011;22284;49.956;19.816;2022-07-22T04:50:47;10.50;;;7.08;;
36243;SDS011;22284;49.956;19.816;2022-07-22T04:53:48;13.88;;;7.33;;
36243;SDS011;22284;49.956;19.816;2022-07-22T04:56:49;13.45;;;7.33;;
36243;SDS011;22284;49.956;19.816;2022-07-22T04:59:50;12.05;;;6.87;;
36243;SDS011;22284;49.956;19.816;2022-07-22T05:02:52;9.93;;;6.53;;
36243;SDS011;22284;49.956;19.816;2022-07-22T05:05:52;11.05;;;7.37;;
36243;SDS011;22284;49.956;19.816;2022-07-22T05:08:53;12.05;;;7.15;;
36243;SDS011;22284;49.956;19.816;2022-07-22T05:11:54;13.95;;;7.05;;
36243;SDS011;22284;49.956;19.816;2022-07-22T05:14:55;14.40;;;7.05;;
36243;SDS011;22284;49.956;19.816;2022-07-22T05:17:56;11.70;;;7.30;;
36243;SDS011;22284;49.956;19.816;2022-07-22T05:20:57;13.78;;;7.22;;
36243;SDS011;22284;49.956;19.816;2022-07-22T05:23:58;14.98;;;7.58;;
36243;SDS011;22284;49.956;19.816;2022-07-22T05:27:00;11.93;;;7.50;;
36243;SDS011;22284;49.956;19.816;2022-07-22T05:30:01;11.70;;;7.12;;
36243;SDS011;22284;49.956;19.816;2022-07-22T05:33:03;12.03;;;7.17;;
36243;SDS011;22284;49.956;19.816;2022-07-22T05:36:04;13.70;;;7.55;;
36243;SDS011;22284;49.956;19.816;2022-07-22T05:42:07;12.60;;;7.05;;
36243;SDS011;22284;49.956;19.816;2022-07-22T05:45:09;13.38;;;7.60;;
36243;SDS011;22284;49.956;19.816;2022-07-22T05:48:10;12.30;;;7.05;;
36243;SDS011;22284;49.956;19.816;2022-07-22T05:51:12;14.38;;;7.03;;
36243;SDS011;22284;49.956;19.816;2022-07-22T05:54:14;13.90;;;7.87;;
36243;SDS011;22284;49.956;19.816;2022-07-22T05:57:15;11.85;;;7.12;;
36243;SDS011;22284;49.956;19.816;2022-07-22T06:00:16;10.48;;;7.10;;
36243;SDS011;22284;49.956;19.816;2022-07-22T06:03:17;12.30;;;7.03;;
36243;SDS011;22284;49.956;19.816;2022-07-22T06:06:18;13.35;;;7.70;;
36243;SDS011;22284;49.956;19.816;2022-07-22T06:09:19;11.80;;;7.60;;
36243;SDS011;22284;49.956;19.816;2022-07-22T06:12:20;17.30;;;7.42;;
36243;SDS011;22284;49.956;19.816;2022-07-22T06:15:21;12.23;;;7.12;;
36243;SDS011;22284;49.956;19.816;2022-07-22T06:18:22;17.27;;;7.80;;
36243;SDS011;22284;49.956;19.816;2022-07-22T06:21:23;17.67;;;8.50;;
36243;SDS011;22284;49.956;19.816;2022-07-22T06:24:24;13.30;;;8.00;;
36243;SDS011;22284;49.956;19.816;2022-07-22T06:27:25;12.90;;;8.23;;
36243;SDS011;22284;49.956;19.816;2022-07-22T06:30:26;11.68;;;8.05;;
36243;SDS011;22284;49.956;19.816;2022-07-22T06:33:27;11.88;;;8.03;;
36243;SDS011;22284;49.956;19.816;2022-07-22T06:36:28;16.12;;;8.45;;
36243;SDS011;22284;49.956;19.816;2022-07-22T06:39:29;14.90;;;7.92;;
36243;SDS011;22284;49.956;19.816;2022-07-22T06:42:30;17.70;;;8.85;;
36243;SDS011;22284;49.956;19.816;2022-07-22T06:45:31;16.42;;;8.85;;
36243;SDS011;22284;49.956;19.816;2022-07-22T06:48:32;14.83;;;8.63;;
36243;SDS011;22284;49.956;19.816;2022-07-22T06:51:33;15.28;;;8.43;;
36243;SDS011;22284;49.956;19.816;2022-07-22T06:54:34;20.15;;;8.98;;
36243;SDS011;22284;49.956;19.816;2022-07-22T06:57:35;13.45;;;7.97;;
36243;SDS011;22284;49.956;19.816;2022-07-22T07:00:36;13.97;;;8.30;;
36243;SDS011;22284;49.956;19.816;2022-07-22T07:03:37;16.00;;;8.25;;
36243;SDS011;22284;49.956;19.816;2022-07-22T07:06:38;14.03;;;8.70;;
36243;SDS011;22284;49.956;19.816;2022-07-22T07:09:39;16.23;;;8.88;;
36243;SDS011;22284;49.956;19.816;2022-07-22T07:12:40;15.08;;;8.45;;
36243;SDS011;22284;49.956;19.816;2022-07-22T07:15:41;14.40;;;8.08;;
36243;SDS011;22284;49.956;19.816;2022-07-22T07:18:43;15.18;;;8.70;;
36243;SDS011;22284;49.956;19.816;2022-07-22T07:21:44;17.20;;;8.78;;
36243;SDS011;22284;49.956;19.816;2022-07-22T07:24:45;13.20;;;9.00;;
36243;SDS011;22284;49.956;19.816;2022-07-22T07:27:46;15.03;;;8.78;;
36243;SDS011;22284;49.956;19.816;2022-07-22T07:30:47;13.10;;;8.93;;
36243;SDS011;22284;49.956;19.816;2022-07-22T07:33:49;16.23;;;9.33;;
36243;SDS011;22284;49.956;19.816;2022-07-22T07:36:50;15.78;;;8.65;;
36243;SDS011;22284;49.956;19.816;2022-07-22T07:39:51;19.32;;;9.03;;
36243;SDS011;22284;49.956;19.816;2022-07-22T07:42:52;15.75;;;8.65;;
36243;SDS011;22284;49.956;19.816;2022-07-22T07:45:53;17.00;;;8.43;;
36243;SDS011;22284;49.956;19.816;2022-07-22T07:48:54;14.55;;;8.98;;
36243;SDS011;22284;49.956;19.816;2022-07-22T07:51:55;16.10;;;8.85;;
36243;SDS011;22284;49.956;19.816;2022-07-22T07:54:56;13.87;;;9.07;;
36243;SDS011;22284;49.956;19.816;2022-07-22T07:57:58;16.02;;;8.95;;
36243;SDS011;22284;49.956;19.816;2022-07-22T08:00:59;15.05;;;10.05;;
36243;SDS011;22284;49.956;19.816;2022-07-22T08:04:00;13.65;;;8.53;;
36243;SDS011;22284;49.956;19.816;2022-07-22T08:07:01;15.98;;;9.33;;
36243;SDS011;22284;49.956;19.816;2022-07-22T08:10:05;14.65;;;9.18;;
36243;SDS011;22284;49.956;19.816;2022-07-22T08:13:08;15.58;;;9.38;;
36243;SDS011;22284;49.956;19.816;2022-07-22T08:16:08;15.55;;;9.23;;
36243;SDS011;22284;49.956;19.816;2022-07-22T08:19:10;16.73;;;9.13;;
36243;SDS011;22284;49.956;19.816;2022-07-22T08:22:11;13.45;;;9.08;;
36243;SDS011;22284;49.956;19.816;2022-07-22T08:25:12;15.80;;;8.75;;
36243;SDS011;22284;49.956;19.816;2022-07-22T08:28:13;16.27;;;8.58;;
36243;SDS011;22284;49.956;19.816;2022-07-22T08:31:14;13.20;;;8.03;;
36243;SDS011;22284;49.956;19.816;2022-07-22T08:34:15;14.03;;;8.90;;
36243;SDS011;22284;49.956;19.816;2022-07-22T08:37:17;13.35;;;8.65;;
36243;SDS011;22284;49.956;19.816;2022-07-22T08:40:18;13.90;;;9.05;;
36243;SDS011;22284;49.956;19.816;2022-07-22T08:43:20;14.55;;;9.55;;
36243;SDS011;22284;49.956;19.816;2022-07-22T08:46:21;15.63;;;9.07;;
36243;SDS011;22284;49.956;19.816;2022-07-22T08:49:22;12.98;;;8.95;;
36243;SDS011;22284;49.956;19.816;2022-07-22T08:52:23;15.72;;;9.18;;
36243;SDS011;22284;49.956;19.816;2022-07-22T08:55:24;17.50;;;9.80;;
36243;SDS011;22284;49.956;19.816;2022-07-22T08:58:26;16.70;;;8.98;;
36243;SDS011;22284;49.956;19.816;2022-07-22T09:01:29;13.95;;;8.68;;
36243;SDS011;22284;49.956;19.816;2022-07-22T09:04:30;16.90;;;9.25;;
36243;SDS011;22284;49.956;19.816;2022-07-22T09:07:33;17.70;;;9.60;;
36243;SDS011;22284;49.956;19.816;2022-07-22T09:10:39;15.58;;;10.08;;
36243;SDS011;22284;49.956;19.816;2022-07-22T09:13:42;15.90;;;9.60;;
36243;SDS011;22284;49.956;19.816;2022-07-22T09:16:46;18.67;;;10.00;;
36243;SDS011;22284;49.956;19.816;2022-07-22T09:19:49;18.00;;;9.58;;
36243;SDS011;22284;49.956;19.816;2022-07-22T09:22:51;16.23;;;10.08;;
36243;SDS011;22284;49.956;19.816;2022-07-22T09:25:53;17.60;;;9.98;;
36243;SDS011;22284;49.956;19.816;2022-07-22T09:28:54;19.62;;;10.15;;
36243;SDS011;22284;49.956;19.816;2022-07-22T09:31:56;18.12;;;9.98;;
36243;SDS011;22284;49.956;19.816;2022-07-22T09:35:01;18.50;;;11.10;;
36243;SDS011;22284;49.956;19.816;2022-07-22T09:38:07;17.17;;;9.68;;
36243;SDS011;22284;49.956;19.816;2022-07-22T09:41:10;15.05;;;9.80;;
36243;SDS011;22284;49.956;19.816;2022-07-22T09:44:20;18.37;;;10.68;;
36243;SDS011;22284;49.956;19.816;2022-07-22T09:50:30;18.80;;;10.80;;
36243;SDS011;22284;49.956;19.816;2022-07-22T09:53:34;17.55;;;10.28;;
36243;SDS011;22284;49.956;19.816;2022-07-22T09:56:35;19.40;;;10.98;;
36243;SDS011;22284;49.956;19.816;2022-07-22T09:59:38;17.35;;;10.15;;
36243;SDS011;22284;49.956;19.816;2022-07-22T10:02:41;17.30;;;10.38;;
36243;SDS011;22284;49.956;19.816;2022-07-22T10:05:51;19.10;;;10.48;;
36243;SDS011;22284;49.956;19.816;2022-07-22T10:08:54;17.15;;;10.95;;
36243;SDS011;22284;49.956;19.816;2022-07-22T10:11:56;17.82;;;11.25;;
36243;SDS011;22284;49.956;19.816;2022-07-22T10:14:58;16.67;;;10.80;;
36243;SDS011;22284;49.956;19.816;2022-07-22T10:18:01;14.68;;;10.82;;
36243;SDS011;22284;49.956;19.816;2022-07-22T10:21:07;16.25;;;10.88;;
36243;SDS011;22284;49.956;19.816;2022-07-22T10:24:11;19.67;;;10.95;;
36243;SDS011;22284;49.956;19.816;2022-07-22T10:27:14;17.10;;;10.88;;
36243;SDS011;22284;49.956;19.816;2022-07-22T10:30:17;17.63;;;11.33;;
36243;SDS011;22284;49.956;19.816;2022-07-22T10:33:24;16.27;;;11.03;;
36243;SDS011;22284;49.956;19.816;2022-07-22T10:36:33;19.92;;;11.68;;
36243;SDS011;22284;49.956;19.816;2022-07-22T10:40:06;19.12;;;12.07;;
36243;SDS011;22284;49.956;19.816;2022-07-22T10:43:10;20.65;;;12.05;;
36243;SDS011;22284;49.956;19.816;2022-07-22T10:46:12;16.25;;;11.68;;
36243;SDS011;22284;49.956;19.816;2022-07-22T10:49:14;18.77;;;12.00;;
36243;SDS011;22284;49.956;19.816;2022-07-22T10:52:17;18.17;;;12.03;;
36243;SDS011;22284;49.956;19.816;2022-07-22T10:55:21;18.80;;;11.97;;
36243;SDS011;22284;49.956;19.816;2022-07-22T11:01:45;18.45;;;11.43;;
36243;SDS011;22284;49.956;19.816;2022-07-22T11:04:48;19.40;;;11.48;;
36243;SDS011;22284;49.956;19.816;2022-07-22T11:07:49;20.17;;;11.97;;
36243;SDS011;22284;49.956;19.816;2022-07-22T11:10:50;19.27;;;11.73;;
36243;SDS011;22284;49.956;19.816;2022-07-22T11:13:51;18.50;;;11.00;;
36243;SDS011;22284;49.956;19.816;2022-07-22T11:16:53;18.90;;;11.00;;
36243;SDS011;22284;49.956;19.816;2022-07-22T11:19:58;18.60;;;11.33;;
36243;SDS011;22284;49.956;19.816;2022-07-22T11:22:59;18.17;;;10.83;;
36243;SDS011;22284;49.956;19.816;2022-07-22T11:26:00;16.40;;;10.17;;
36243;SDS011;22284;49.956;19.816;2022-07-22T11:29:01;18.40;;;11.03;;
36243;SDS011;22284;49.956;19.816;2022-07-22T11:32:03;19.65;;;11.22;;
36243;SDS011;22284;49.956;19.816;2022-07-22T11:35:10;17.98;;;10.70;;
36243;SDS011;22284;49.956;19.816;2022-07-22T11:38:13;15.83;;;10.65;;
36243;SDS011;22284;49.956;19.816;2022-07-22T11:41:18;15.53;;;10.80;;
36243;SDS011;22284;49.956;19.816;2022-07-22T11:44:22;17.90;;;10.85;;
36243;SDS011;22284;49.956;19.816;2022-07-22T11:47:27;16.73;;;11.08;;
36243;SDS011;22284;49.956;19.816;2022-07-22T11:50:29;15.70;;;10.97;;
36243;SDS011;22284;49.956;19.816;2022-07-22T11:53:31;18.82;;;11.05;;
36243;SDS011;22284;49.956;19.816;2022-07-22T11:56:34;18.55;;;10.45;;
36243;SDS011;22284;49.956;19.816;2022-07-22T11:59:36;16.02;;;10.65;;
36243;SDS011;22284;49.956;19.816;2022-07-22T12:02:37;19.83;;;10.53;;
36243;SDS011;22284;49.956;19.816;2022-07-22T12:05:38;16.97;;;10.73;;
36243;SDS011;22284;49.956;19.816;2022-07-22T12:08:43;18.03;;;10.83;;
36243;SDS011;22284;49.956;19.816;2022-07-22T12:11:48;16.73;;;10.72;;
36243;SDS011;22284;49.956;19.816;2022-07-22T12:14:52;17.73;;;10.28;;
36243;SDS011;22284;49.956;19.816;2022-07-22T12:21:21;20.15;;;10.40;;
36243;SDS011;22284;49.956;19.816;2022-07-22T12:24:28;17.90;;;11.12;;
36243;SDS011;22284;49.956;19.816;2022-07-22T12:27:59;14.78;;;10.20;;
36243;SDS011;22284;49.956;19.816;2022-07-22T12:31:01;14.33;;;10.32;;
36243;SDS011;22284;49.956;19.816;2022-07-22T12:34:03;18.35;;;10.48;;
36243;SDS011;22284;49.956;19.816;2022-07-22T12:37:20;19.42;;;10.35;;
36243;SDS011;22284;49.956;19.816;2022-07-22T12:40:26;16.55;;;10.13;;
36243;SDS011;22284;49.956;19.816;2022-07-22T12:43:28;18.12;;;10.35;;
36243;SDS011;22284;49.956;19.816;2022-07-22T12:46:29;17.27;;;10.53;;
36243;SDS011;22284;49.956;19.816;2022-07-22T12:49:30;20.75;;;9.80;;
36243;SDS011;22284;49.956;19.816;2022-07-22T12:52:31;15.18;;;9.15;;
36243;SDS011;22284;49.956;19.816;2022-07-22T12:55:36;13.85;;;8.40;;
36243;SDS011;22284;49.956;19.816;2022-07-22T12:58:40;10.72;;;7.78;;
36243;SDS011;22284;49.956;19.816;2022-07-22T13:01:41;13.50;;;8.65;;
36243;SDS011;22284;49.956;19.816;2022-07-22T13:04:43;19.10;;;9.85;;
36243;SDS011;22284;49.956;19.816;2022-07-22T13:07:44;11.83;;;9.20;;
36243;SDS011;22284;49.956;19.816;2022-07-22T13:10:46;13.98;;;9.73;;
36243;SDS011;22284;49.956;19.816;2022-07-22T13:13:47;14.98;;;8.53;;
36243;SDS011;22284;49.956;19.816;2022-07-22T13:16:48;13.60;;;8.78;;
36243;SDS011;22284;49.956;19.816;2022-07-22T13:19:49;12.18;;;8.60;;
36243;SDS011;22284;49.956;19.816;2022-07-22T13:22:50;15.00;;;8.75;;
36243;SDS011;22284;49.956;19.816;2022-07-22T13:25:51;13.80;;;8.73;;
36243;SDS011;22284;49.956;19.816;2022-07-22T13:28:52;16.35;;;9.23;;
36243;SDS011;22284;49.956;19.816;2022-07-22T13:31:53;15.53;;;8.50;;
36243;SDS011;22284;49.956;19.816;2022-07-22T13:34:54;15.53;;;8.98;;
36243;SDS011;22284;49.956;19.816;2022-07-22T13:37:55;14.43;;;8.83;;
36243;SDS011;22284;49.956;19.816;2022-07-22T13:40:56;13.85;;;9.10;;
36243;SDS011;22284;49.956;19.816;2022-07-22T13:43:57;16.70;;;9.23;;
36243;SDS011;22284;49.956;19.816;2022-07-22T13:46:58;14.60;;;9.20;;
36243;SDS011;22284;49.956;19.816;2022-07-22T13:50:00;18.30;;;9.43;;
36243;SDS011;22284;49.956;19.816;2022-07-22T13:53:01;15.00;;;8.95;;
36243;SDS011;22284;49.956;19.816;2022-07-22T13:56:02;18.32;;;9.58;;
36243;SDS011;22284;49.956;19.816;2022-07-22T13:59:04;13.62;;;9.10;;
36243;SDS011;22284;49.956;19.816;2022-07-22T14:02:05;13.85;;;8.95;;
36243;SDS011;22284;49.956;19.816;2022-07-22T14:05:06;13.08;;;8.43;;
36243;SDS011;22284;49.956;19.816;2022-07-22T14:08:07;16.25;;;8.40;;
36243;SDS011;22284;49.956;19.816;2022-07-22T14:11:08;12.82;;;8.15;;
36243;SDS011;22284;49.956;19.816;2022-07-22T14:14:09;10.48;;;7.75;;
36243;SDS011;22284;49.956;19.816;2022-07-22T14:17:10;15.65;;;8.43;;
36243;SDS011;22284;49.956;19.816;2022-07-22T14:20:11;12.75;;;8.50;;
36243;SDS011;22284;49.956;19.816;2022-07-22T14:23:12;13.48;;;7.78;;
36243;SDS011;22284;49.956;19.816;2022-07-22T14:26:15;15.35;;;8.45;;
36243;SDS011;22284;49.956;19.816;2022-07-22T14:29:16;15.50;;;7.80;;
36243;SDS011;22284;49.956;19.816;2022-07-22T14:32:17;16.10;;;8.35;;
36243;SDS011;22284;49.956;19.816;2022-07-22T14:35:20;15.40;;;8.33;;
36243;SDS011;22284;49.956;19.816;2022-07-22T14:38:21;12.00;;;7.97;;
36243;SDS011;22284;49.956;19.816;2022-07-22T14:41:22;11.57;;;7.65;;
36243;SDS011;22284;49.956;19.816;2022-07-22T14:47:25;14.90;;;8.05;;
36243;SDS011;22284;49.956;19.816;2022-07-22T14:53:27;17.87;;;8.23;;
36243;SDS011;22284;49.956;19.816;2022-07-22T14:56:29;13.25;;;7.70;;
36243;SDS011;22284;49.956;19.816;2022-07-22T14:59:30;12.65;;;7.30;;
36243;SDS011;22284;49.956;19.816;2022-07-22T15:02:31;12.05;;;7.70;;
36243;SDS011;22284;49.956;19.816;2022-07-22T15:05:32;10.78;;;7.53;;
36243;SDS011;22284;49.956;19.816;2022-07-22T15:08:33;12.23;;;7.65;;
36243;SDS011;22284;49.956;19.816;2022-07-22T15:11:34;10.05;;;7.28;;
36243;SDS011;22284;49.956;19.816;2022-07-22T15:14:35;14.68;;;8.03;;
36243;SDS011;22284;49.956;19.816;2022-07-22T15:17:37;10.00;;;7.08;;
36243;SDS011;22284;49.956;19.816;2022-07-22T15:20:39;11.35;;;7.28;;
36243;SDS011;22284;49.956;19.816;2022-07-22T15:23:40;17.92;;;7.78;;
36243;SDS011;22284;49.956;19.816;2022-07-22T15:26:41;12.10;;;7.92;;
36243;SDS011;22284;49.956;19.816;2022-07-22T15:29:42;10.68;;;7.50;;
36243;SDS011;22284;49.956;19.816;2022-07-22T15:32:43;14.87;;;7.83;;
36243;SDS011;22284;49.956;19.816;2022-07-22T15:35:45;15.38;;;7.83;;
36243;SDS011;22284;49.956;19.816;2022-07-22T15:38:47;14.93;;;7.83;;
36243;SDS011;22284;49.956;19.816;2022-07-22T15:41:48;9.95;;;7.47;;
36243;SDS011;22284;49.956;19.816;2022-07-22T15:44:49;14.60;;;7.83;;
36243;SDS011;22284;49.956;19.816;2022-07-22T15:47:50;16.07;;;7.62;;
36243;SDS011;22284;49.956;19.816;2022-07-22T15:50:51;13.65;;;7.80;;
36243;SDS011;22284;49.956;19.816;2022-07-22T15:53:52;14.28;;;7.97;;
36243;SDS011;22284;49.956;19.816;2022-07-22T15:56:53;11.38;;;7.92;;
36243;SDS011;22284;49.956;19.816;2022-07-22T16:00:13;13.78;;;7.67;;
36243;SDS011;22284;49.956;19.816;2022-07-22T16:03:15;10.53;;;7.62;;
36243;SDS011;22284;49.956;19.816;2022-07-22T16:06:16;10.48;;;7.62;;
36243;SDS011;22284;49.956;19.816;2022-07-22T16:09:17;10.80;;;7.87;;
36243;SDS011;22284;49.956;19.816;2022-07-22T16:12:18;69.47;;;19.30;;
36243;SDS011;22284;49.956;19.816;2022-07-22T16:15:19;13.62;;;7.53;;
36243;SDS011;22284;49.956;19.816;2022-07-22T16:18:20;14.90;;;7.30;;
36243;SDS011;22284;49.956;19.816;2022-07-22T16:21:21;9.03;;;7.42;;
36243;SDS011;22284;49.956;19.816;2022-07-22T16:24:22;10.72;;;7.37;;
36243;SDS011;22284;49.956;19.816;2022-07-22T16:27:23;10.40;;;7.10;;
36243;SDS011;22284;49.956;19.816;2022-07-22T16:30:25;13.08;;;7.67;;
36243;SDS011;22284;49.956;19.816;2022-07-22T16:33:26;10.75;;;7.80;;
36243;SDS011;22284;49.956;19.816;2022-07-22T16:36:27;12.70;;;7.05;;
36243;SDS011;22284;49.956;19.816;2022-07-22T16:39:29;12.23;;;7.50;;
36243;SDS011;22284;49.956;19.816;2022-07-22T16:42:30;11.83;;;7.08;;
36243;SDS011;22284;49.956;19.816;2022-07-22T16:45:31;10.88;;;7.47;;
36243;SDS011;22284;49.956;19.816;2022-07-22T16:48:32;11.38;;;7.62;;
36243;SDS011;22284;49.956;19.816;2022-07-22T16:51:34;11.28;;;8.15;;
36243;SDS011;22284;49.956;19.816;2022-07-22T16:54:35;17.12;;;7.75;;
36243;SDS011;22284;49.956;19.816;2022-07-22T16:57:36;13.10;;;8.00;;
36243;SDS011;22284;49.956;19.816;2022-07-22T17:00:37;11.83;;;7.40;;
36243;SDS011;22284;49.956;19.816;2022-07-22T17:03:38;13.08;;;6.78;;
36243;SDS011;22284;49.956;19.816;2022-07-22T17:06:39;12.68;;;7.53;;
36243;SDS011;22284;49.956;19.816;2022-07-22T17:12:41;12.73;;;7.47;;
36243;SDS011;22284;49.956;19.816;2022-07-22T17:15:43;12.37;;;7.92;;
36243;SDS011;22284;49.956;19.816;2022-07-22T17:18:44;13.53;;;7.70;;
36243;SDS011;22284;49.956;19.816;2022-07-22T17:21:45;11.57;;;7.03;;
36243;SDS011;22284;49.956;19.816;2022-07-22T17:24:46;12.88;;;7.35;;
36243;SDS011;22284;49.956;19.816;2022-07-22T17:27:47;12.33;;;7.67;;
36243;SDS011;22284;49.956;19.816;2022-07-22T17:30:48;13.00;;;8.30;;
36243;SDS011;22284;49.956;19.816;2022-07-22T17:33:50;12.60;;;8.08;;
36243;SDS011;22284;49.956;19.816;2022-07-22T17:36:51;15.80;;;8.35;;
36243;SDS011;22284;49.956;19.816;2022-07-22T17:39:52;10.83;;;7.30;;
36243;SDS011;22284;49.956;19.816;2022-07-22T17:42:53;12.78;;;7.58;;
36243;SDS011;22284;49.956;19.816;2022-07-22T17:45:54;10.53;;;8.27;;
36243;SDS011;22284;49.956;19.816;2022-07-22T17:48:55;13.78;;;8.33;;
36243;SDS011;22284;49.956;19.816;2022-07-22T17:51:56;10.88;;;8.48;;
36243;SDS011;22284;49.956;19.816;2022-07-22T17:54:57;12.90;;;8.15;;
36243;SDS011;22284;49.956;19.816;2022-07-22T17:57:58;14.38;;;8.15;;
36243;SDS011;22284;49.956;19.816;2022-07-22T18:00:59;12.20;;;8.20;;